Terminal Aerodrome Forecast
Issued by NWS

Home | Current Version | Previous Version | Text Only | Print | Product List | Glossary On
Versions: 1 2 3 4 5 6 7 8 9 10 11 12 13 14 15 16
156
FTUS46 KLOX 260532
TAFVNY
TAF
KVNY 260532Z 2606/2706 VRB05KT P6SM SCT120 BKN200
     FM262000 15010KT P6SM SCT120 BKN200
     FM270500 VRB05KT P6SM SCT120 BKN200=

USA.gov is the U.S. government's official web portal to all federal, state and local government web resources and services.